createdAt,value
2022-10-24T00:03:13.915Z,15.70
2022-10-24T00:07:17.131Z,15.70
2022-10-24T00:11:23.732Z,15.70
2022-10-24T00:15:26.899Z,15.70
2022-10-24T00:20:05.274Z,15.70
2022-10-24T00:24:08.551Z,15.70
2022-10-24T00:28:13.090Z,15.70
2022-10-24T00:32:16.134Z,15.60
2022-10-24T00:36:21.509Z,15.60
2022-10-24T00:40:55.286Z,15.60
2022-10-24T00:44:59.768Z,15.50
2022-10-24T00:49:02.905Z,15.50
2022-10-24T00:53:43.076Z,15.40
2022-10-24T00:57:49.225Z,15.40
2022-10-24T01:01:53.773Z,15.40
2022-10-24T01:06:33.965Z,15.30
2022-10-24T01:10:47.439Z,15.30
2022-10-24T01:15:16.058Z,15.20
2022-10-24T01:19:42.909Z,15.30
2022-10-24T01:24:22.324Z,15.20
2022-10-24T01:28:31.846Z,15.30
2022-10-24T01:32:43.277Z,15.30
2022-10-24T01:36:52.336Z,15.30
2022-10-24T01:41:25.184Z,15.30
2022-10-24T01:45:31.970Z,15.30
2022-10-24T01:49:39.148Z,15.30
2022-10-24T01:54:13.396Z,15.30
2022-10-24T01:58:16.696Z,15.30
2022-10-24T02:02:53.866Z,15.30
2022-10-24T02:07:00.514Z,15.30
2022-10-24T02:11:34.886Z,15.30
2022-10-24T02:16:12.133Z,15.30
2022-10-24T02:20:51.852Z,15.40
2022-10-24T02:24:59.373Z,15.40
2022-10-24T02:29:09.373Z,15.40
2022-10-24T02:34:07.020Z,15.50
2022-10-24T02:38:13.978Z,15.50
2022-10-24T02:42:20.768Z,15.50
2022-10-24T02:46:25.429Z,15.50
2022-10-24T02:50:28.833Z,15.50
2022-10-24T02:54:31.932Z,15.50
2022-10-24T02:58:36.382Z,15.60
2022-10-24T03:02:39.414Z,15.50
2022-10-24T03:07:13.111Z,15.50
2022-10-24T03:11:16.078Z,15.40
2022-10-24T03:15:20.947Z,15.40
2022-10-24T03:19:24.150Z,15.40
2022-10-24T03:24:01.441Z,15.30
2022-10-24T03:28:04.723Z,15.30
2022-10-24T03:32:09.556Z,15.20
2022-10-24T03:36:12.650Z,15.20
2022-10-24T03:40:54.554Z,15.20
2022-10-24T03:45:25.324Z,15.20
2022-10-24T03:50:03.387Z,15.20
2022-10-24T03:54:36.916Z,15.20
2022-10-24T03:59:13.649Z,15.10
2022-10-24T04:03:50.323Z,15.10
2022-10-24T04:08:28.302Z,15.20
2022-10-24T04:13:02.039Z,15.20
2022-10-24T04:17:39.139Z,15.10
2022-10-24T04:22:16.223Z,15.00
2022-10-24T04:26:52.797Z,15.10
2022-10-24T04:31:30.948Z,15.00
2022-10-24T04:40:50.800Z,15.00
2022-10-24T04:45:24.395Z,15.00
2022-10-24T04:50:02.853Z,14.90
2022-10-24T04:54:36.620Z,14.90
2022-10-24T04:59:13.768Z,14.90
2022-10-24T05:03:50.466Z,14.90
2022-10-24T05:08:29.046Z,14.90
2022-10-24T05:13:02.893Z,14.80
2022-10-24T05:17:39.702Z,14.90
2022-10-24T05:22:16.737Z,14.90
2022-10-24T05:26:54.838Z,14.90
2022-10-24T05:31:28.487Z,14.90
2022-10-24T05:36:26.317Z,14.90
2022-10-24T05:41:03.049Z,14.90
2022-10-24T05:45:41.324Z,14.90
2022-10-24T05:50:15.679Z,14.90
2022-10-24T05:55:06.373Z,14.90
2022-10-24T05:59:28.974Z,14.90
2022-10-24T06:04:10.007Z,15.00
2022-10-24T06:08:40.514Z,14.90
2022-10-24T06:13:17.855Z,15.00
2022-10-24T06:17:55.143Z,15.00
2022-10-24T06:22:30.876Z,14.90
2022-10-24T06:27:05.106Z,15.00
2022-10-24T06:31:42.171Z,14.90
2022-10-24T06:41:19.555Z,15.00
2022-10-24T06:45:53.467Z,15.00
2022-10-24T06:50:30.195Z,15.00
2022-10-24T06:55:07.703Z,15.10
2022-10-24T06:59:43.178Z,15.20
2022-10-24T07:04:16.986Z,15.20
2022-10-24T07:08:53.542Z,15.30
2022-10-24T07:13:30.488Z,15.30
2022-10-24T07:18:10.990Z,15.40
2022-10-24T07:22:46.368Z,15.40
2022-10-24T07:27:20.612Z,15.40
2022-10-24T07:31:59.097Z,15.40
2022-10-24T07:36:56.922Z,15.40
2022-10-24T07:41:39.417Z,15.40
2022-10-24T07:46:10.874Z,15.40
2022-10-24T07:50:45.748Z,15.50
2022-10-24T07:55:21.327Z,15.50
2022-10-24T07:59:59.530Z,15.50
2022-10-24T08:04:33.359Z,15.50
2022-10-24T08:09:10.035Z,15.50
2022-10-24T08:13:46.889Z,15.60
2022-10-24T08:18:25.266Z,15.70
2022-10-24T08:22:59.379Z,15.80
2022-10-24T08:27:36.555Z,16.10
2022-10-24T08:32:13.321Z,16.30
2022-10-24T08:36:51.981Z,16.30
2022-10-24T08:41:30.412Z,16.40
2022-10-24T08:46:08.517Z,16.50
2022-10-24T08:50:42.534Z,16.60
2022-10-24T08:55:30.870Z,16.80
2022-10-24T08:59:54.649Z,17.10
2022-10-24T09:04:27.875Z,17.30
2022-10-24T09:09:06.085Z,17.40
2022-10-24T09:13:44.460Z,17.50
2022-10-24T09:18:18.065Z,17.50
2022-10-24T09:22:54.930Z,17.50
2022-10-24T09:27:33.457Z,17.60
2022-10-24T09:32:15.003Z,17.80
2022-10-24T09:37:10.321Z,18.10
2022-10-24T09:41:47.823Z,18.30
2022-10-24T09:46:24.762Z,18.40
2022-10-24T09:50:29.489Z,18.40
2022-10-24T09:54:33.761Z,18.50
2022-10-24T09:59:13.917Z,18.50
2022-10-24T10:03:50.297Z,18.40
2022-10-24T10:08:29.573Z,18.40
2022-10-24T10:13:05.874Z,18.30
2022-10-24T10:17:39.511Z,18.30
2022-10-24T10:22:23.466Z,18.40
2022-10-24T10:26:55.574Z,18.40
2022-10-24T10:31:34.817Z,18.30
2022-10-24T10:35:44.289Z,18.20
2022-10-24T10:40:22.305Z,18.00
2022-10-24T10:45:04.465Z,17.80
2022-10-24T10:49:33.442Z,17.60
2022-10-24T10:54:13.005Z,17.50
2022-10-24T10:58:43.610Z,17.40
2022-10-24T11:03:33.266Z,17.30
2022-10-24T11:08:05.275Z,17.20
2022-10-24T11:12:35.793Z,17.00
2022-10-24T11:17:15.561Z,16.80
2022-10-24T11:21:51.330Z,16.60
2022-10-24T11:26:28.071Z,16.50
2022-10-24T11:31:04.816Z,16.40
2022-10-24T11:35:20.775Z,16.40
2022-10-24T11:39:45.820Z,16.40
2022-10-24T11:44:23.990Z,16.40
2022-10-24T11:49:00.174Z,16.40
2022-10-24T11:53:40.794Z,16.30
2022-10-24T11:57:55.983Z,16.30
2022-10-24T12:02:47.515Z,16.30
2022-10-24T12:07:53.195Z,16.20
2022-10-24T12:12:29.764Z,16.30
2022-10-24T12:17:17.057Z,16.30
2022-10-24T12:21:26.293Z,16.40
2022-10-24T12:26:03.116Z,16.40
2022-10-24T12:30:31.794Z,16.50
2022-10-24T12:34:49.078Z,16.50
2022-10-24T12:39:09.610Z,16.60
2022-10-24T12:43:30.834Z,16.60
2022-10-24T12:48:12.652Z,16.60
2022-10-24T12:53:03.974Z,16.60
2022-10-24T12:57:29.726Z,16.60
2022-10-24T13:02:21.943Z,16.60
2022-10-24T13:06:46.264Z,16.60
2022-10-24T13:11:06.207Z,16.70
2022-10-24T13:15:24.801Z,16.70
2022-10-24T13:19:46.598Z,16.70
2022-10-24T13:24:20.539Z,16.70
2022-10-24T13:28:59.124Z,16.60
2022-10-24T13:33:33.576Z,16.60
2022-10-24T13:38:07.921Z,16.50
2022-10-24T13:42:26.324Z,16.50
2022-10-24T13:46:37.113Z,16.60
2022-10-24T13:50:48.357Z,16.60
2022-10-24T13:54:56.757Z,16.60
2022-10-24T13:59:00.038Z,16.60
2022-10-24T14:03:11.949Z,16.60
2022-10-24T14:07:22.193Z,16.60
2022-10-24T14:11:27.881Z,16.60
2022-10-24T14:15:32.714Z,16.60
2022-10-24T14:19:44.408Z,16.60
2022-10-24T14:23:57.762Z,16.60
2022-10-24T14:28:03.336Z,16.50
2022-10-24T14:32:08.936Z,16.50
2022-10-24T14:36:44.159Z,16.50
2022-10-24T14:40:53.921Z,16.40
2022-10-24T14:45:04.646Z,16.50
2022-10-24T14:49:30.608Z,16.50
2022-10-24T14:53:35.268Z,16.50
2022-10-24T14:58:21.621Z,16.50
2022-10-24T15:02:46.233Z,16.40
2022-10-24T15:06:49.459Z,16.40
2022-10-24T15:11:29.630Z,16.30
2022-10-24T15:15:34.707Z,16.30
2022-10-24T15:20:14.038Z,16.20
2022-10-24T15:24:44.853Z,16.20
2022-10-24T15:29:08.206Z,16.20
2022-10-24T15:33:36.049Z,16.10
2022-10-24T15:38:12.575Z,16.00
2022-10-24T15:42:49.160Z,15.90
2022-10-24T15:47:27.667Z,15.80
2022-10-24T15:52:00.955Z,15.70
2022-10-24T15:56:37.635Z,15.60
2022-10-24T16:00:40.877Z,15.60
2022-10-24T16:05:17.621Z,15.50
2022-10-24T16:09:56.071Z,15.50
2022-10-24T16:14:30.566Z,15.50
2022-10-24T16:19:04.371Z,15.50
2022-10-24T16:23:41.466Z,15.40
2022-10-24T16:28:23.572Z,15.40
2022-10-24T16:32:54.922Z,15.30
2022-10-24T16:36:58.317Z,15.20
2022-10-24T16:41:33.354Z,15.20
2022-10-24T16:46:15.831Z,15.10
2022-10-24T16:50:46.885Z,15.10
2022-10-24T16:55:24.317Z,15.00
2022-10-24T17:00:01.528Z,14.90
2022-10-24T17:04:37.461Z,14.90
2022-10-24T17:09:17.497Z,14.90
2022-10-24T17:13:48.036Z,14.90
2022-10-24T17:18:25.607Z,14.80
2022-10-24T17:23:03.043Z,14.80
2022-10-24T17:27:14.574Z,14.80
2022-10-24T17:31:17.982Z,14.80
2022-10-24T17:35:26.548Z,14.70
2022-10-24T17:40:04.308Z,14.70
2022-10-24T17:44:38.663Z,14.50
2022-10-24T17:49:16.588Z,14.50
2022-10-24T17:53:47.387Z,14.40
2022-10-24T17:57:51.923Z,14.50
2022-10-24T18:02:25.573Z,14.40
2022-10-24T18:07:02.849Z,14.30
2022-10-24T18:11:40.182Z,14.30
2022-10-24T18:16:19.082Z,14.20
2022-10-24T18:20:53.326Z,14.10
2022-10-24T18:25:30.249Z,14.10
2022-10-24T18:30:07.774Z,14.00
2022-10-24T18:34:12.190Z,13.90
2022-10-24T18:38:49.340Z,13.80
2022-10-24T18:43:26.490Z,13.70
2022-10-24T18:48:03.960Z,13.60
2022-10-24T18:52:42.640Z,13.50
2022-10-24T18:57:21.913Z,13.40
2022-10-24T19:01:56.490Z,13.30
2022-10-24T19:06:30.407Z,13.20
2022-10-24T19:15:44.555Z,13.10
2022-10-24T19:20:21.344Z,13.00
2022-10-24T19:24:59.684Z,12.90
2022-10-24T19:29:08.969Z,12.90
2022-10-24T19:33:12.376Z,13.00
2022-10-24T19:38:10.467Z,13.00
2022-10-24T19:42:48.961Z,13.00
2022-10-24T19:47:22.910Z,13.00
2022-10-24T19:52:00.082Z,13.00
2022-10-24T19:56:36.806Z,13.00
2022-10-24T20:01:16.376Z,13.00
2022-10-24T20:05:19.470Z,13.00
2022-10-24T20:09:22.662Z,13.00
2022-10-24T20:13:26.198Z,13.10
2022-10-24T20:17:30.638Z,13.10
2022-10-24T20:22:04.128Z,13.10
2022-10-24T20:26:41.047Z,13.10
2022-10-24T20:31:22.068Z,13.10
2022-10-24T20:39:35.452Z,13.10
2022-10-24T20:44:12.033Z,13.10
2022-10-24T20:48:15.054Z,13.20
2022-10-24T20:52:19.477Z,13.30
2022-10-24T20:56:42.864Z,13.30
2022-10-24T21:00:46.026Z,13.30
2022-10-24T21:04:49.104Z,13.40
2022-10-24T21:08:55.494Z,13.40
2022-10-24T21:13:29.069Z,13.40
2022-10-24T21:17:32.104Z,13.50
2022-10-24T21:22:09.165Z,13.50
2022-10-24T21:26:14.749Z,13.60
2022-10-24T21:30:48.533Z,13.60
2022-10-24T21:34:51.512Z,13.60
2022-10-24T21:38:56.437Z,13.50
2022-10-24T21:43:03.187Z,13.50
2022-10-24T21:47:14.611Z,13.40
2022-10-24T21:51:20.152Z,13.40
2022-10-24T21:55:54.070Z,13.40
2022-10-24T21:59:58.505Z,13.30
2022-10-24T22:04:01.629Z,13.30
2022-10-24T22:08:35.422Z,13.20
2022-10-24T22:12:38.449Z,13.10
2022-10-24T22:17:16.754Z,13.10
2022-10-24T22:21:26.062Z,13.10
2022-10-24T22:25:58.220Z,13.10
2022-10-24T22:30:01.223Z,13.10
2022-10-24T22:34:05.967Z,13.10
2022-10-24T22:38:10.243Z,13.20
2022-10-24T22:42:19.116Z,13.20
2022-10-24T22:46:55.150Z,13.20
2022-10-24T22:51:24.617Z,13.20
2022-10-24T22:55:33.613Z,13.10
2022-10-24T23:00:12.366Z,13.10
2022-10-24T23:04:25.468Z,13.00
2022-10-24T23:08:34.916Z,12.90
2022-10-24T23:12:38.800Z,12.80
2022-10-24T23:16:45.913Z,12.70
2022-10-24T23:21:20.207Z,12.60
2022-10-24T23:25:25.532Z,12.50
2022-10-24T23:29:31.826Z,12.40
2022-10-24T23:34:05.878Z,12.40
2022-10-24T23:38:12.071Z,12.40
2022-10-24T23:42:17.157Z,12.50
2022-10-24T23:46:53.822Z,12.50
2022-10-24T23:51:02.484Z,12.50
2022-10-24T23:55:32.854Z,12.40
2022-10-24T23:59:37.254Z,12.40
